CheckWX is a tool to help pilots better visualize weather data.  It is not intended as a substitute for an official pre-flight weather briefing.

04:55:31 UTC

EPKS TAF
Krzesiny Military Air Base Airport
Poland
TAF EPKS 270200Z 2703/2712 32015KT CAVOK

Jun-27@
03:00 UTC

Jun-27 @ 03:00 UTC

Jun-27@
12:00 UTC

Jun-27 @ 12:00 UTC

TAF EPKS 270200Z 2703/2712 32015KT CAVOK
Wind
  • 320° at 15 KTS
Conditions
No significant weather
Cloud Levels
  • No significant clouds